sensor_id;sensor_type;location;lat;lon;timestamp;P1;durP1;ratioP1;P2;durP2;ratioP2
30998;SDS011;20549;50.042;8.968;2023-04-01T00:01:23;3.97;;;1.13;;
30998;SDS011;20549;50.042;8.968;2023-04-01T00:03:49;3.87;;;1.53;;
30998;SDS011;20549;50.042;8.968;2023-04-01T00:06:16;4.55;;;1.00;;
30998;SDS011;20549;50.042;8.968;2023-04-01T00:08:43;1.70;;;1.27;;
30998;SDS011;20549;50.042;8.968;2023-04-01T00:11:09;2.47;;;1.13;;
30998;SDS011;20549;50.042;8.968;2023-04-01T00:13:36;3.37;;;1.13;;
30998;SDS011;20549;50.042;8.968;2023-04-01T00:16:02;1.80;;;1.23;;
30998;SDS011;20549;50.042;8.968;2023-04-01T00:18:29;3.33;;;1.47;;
30998;SDS011;20549;50.042;8.968;2023-04-01T00:20:55;2.22;;;0.80;;
30998;SDS011;20549;50.042;8.968;2023-04-01T00:23:22;4.23;;;1.10;;
30998;SDS011;20549;50.042;8.968;2023-04-01T00:25:49;1.87;;;1.03;;
30998;SDS011;20549;50.042;8.968;2023-04-01T00:28:16;1.90;;;0.93;;
30998;SDS011;20549;50.042;8.968;2023-04-01T00:30:42;5.93;;;1.03;;
30998;SDS011;20549;50.042;8.968;2023-04-01T00:33:09;1.67;;;0.98;;
30998;SDS011;20549;50.042;8.968;2023-04-01T00:35:35;2.65;;;1.27;;
30998;SDS011;20549;50.042;8.968;2023-04-01T00:38:02;1.70;;;1.10;;
30998;SDS011;20549;50.042;8.968;2023-04-01T00:40:35;1.87;;;1.30;;
30998;SDS011;20549;50.042;8.968;2023-04-01T00:43:01;3.60;;;1.40;;
30998;SDS011;20549;50.042;8.968;2023-04-01T00:47:54;3.37;;;1.10;;
30998;SDS011;20549;50.042;8.968;2023-04-01T00:50:21;2.33;;;1.23;;
30998;SDS011;20549;50.042;8.968;2023-04-01T00:52:47;3.57;;;1.30;;
30998;SDS011;20549;50.042;8.968;2023-04-01T00:55:13;1.80;;;1.03;;
30998;SDS011;20549;50.042;8.968;2023-04-01T00:57:40;2.07;;;1.20;;
30998;SDS011;20549;50.042;8.968;2023-04-01T01:00:08;5.77;;;1.13;;
30998;SDS011;20549;50.042;8.968;2023-04-01T01:02:33;2.80;;;1.30;;
30998;SDS011;20549;50.042;8.968;2023-04-01T01:05:00;4.80;;;1.07;;
30998;SDS011;20549;50.042;8.968;2023-04-01T01:07:29;2.53;;;1.40;;
30998;SDS011;20549;50.042;8.968;2023-04-01T01:12:39;2.57;;;1.20;;
30998;SDS011;20549;50.042;8.968;2023-04-01T01:15:09;3.03;;;1.23;;
30998;SDS011;20549;50.042;8.968;2023-04-01T01:26:09;2.83;;;1.20;;
30998;SDS011;20549;50.042;8.968;2023-04-01T01:31:50;1.57;;;1.07;;
30998;SDS011;20549;50.042;8.968;2023-04-01T01:34:37;1.17;;;0.90;;
30998;SDS011;20549;50.042;8.968;2023-04-01T01:37:04;1.47;;;1.00;;
30998;SDS011;20549;50.042;8.968;2023-04-01T01:39:32;1.73;;;1.20;;
30998;SDS011;20549;50.042;8.968;2023-04-01T01:42:00;2.83;;;1.20;;
30998;SDS011;20549;50.042;8.968;2023-04-01T01:44:25;1.97;;;1.10;;
30998;SDS011;20549;50.042;8.968;2023-04-01T01:46:52;4.17;;;1.00;;
30998;SDS011;20549;50.042;8.968;2023-04-01T01:49:18;1.52;;;1.02;;
30998;SDS011;20549;50.042;8.968;2023-04-01T01:51:45;2.20;;;1.17;;
30998;SDS011;20549;50.042;8.968;2023-04-01T01:54:12;2.50;;;1.40;;
30998;SDS011;20549;50.042;8.968;2023-04-01T01:56:38;2.72;;;1.00;;
30998;SDS011;20549;50.042;8.968;2023-04-01T01:59:05;3.42;;;0.93;;
30998;SDS011;20549;50.042;8.968;2023-04-01T02:01:31;2.37;;;1.10;;
30998;SDS011;20549;50.042;8.968;2023-04-01T02:03:58;2.65;;;1.17;;
30998;SDS011;20549;50.042;8.968;2023-04-01T02:06:25;2.77;;;1.37;;
30998;SDS011;20549;50.042;8.968;2023-04-01T02:08:52;1.95;;;1.00;;
30998;SDS011;20549;50.042;8.968;2023-04-01T02:11:18;3.13;;;1.20;;
30998;SDS011;20549;50.042;8.968;2023-04-01T02:16:33;1.20;;;0.77;;
30998;SDS011;20549;50.042;8.968;2023-04-01T02:18:55;1.90;;;0.90;;
30998;SDS011;20549;50.042;8.968;2023-04-01T02:21:22;2.50;;;1.07;;
30998;SDS011;20549;50.042;8.968;2023-04-01T02:23:48;4.42;;;1.17;;
30998;SDS011;20549;50.042;8.968;2023-04-01T02:26:15;3.62;;;1.15;;
30998;SDS011;20549;50.042;8.968;2023-04-01T02:28:41;2.47;;;1.57;;
30998;SDS011;20549;50.042;8.968;2023-04-01T02:31:11;3.17;;;0.90;;
30998;SDS011;20549;50.042;8.968;2023-04-01T02:33:34;0.87;;;0.80;;
30998;SDS011;20549;50.042;8.968;2023-04-01T02:36:01;1.17;;;0.77;;
30998;SDS011;20549;50.042;8.968;2023-04-01T02:38:28;2.97;;;1.17;;
30998;SDS011;20549;50.042;8.968;2023-04-01T02:40:58;3.27;;;1.00;;
30998;SDS011;20549;50.042;8.968;2023-04-01T02:43:24;2.43;;;0.83;;
30998;SDS011;20549;50.042;8.968;2023-04-01T02:45:50;3.80;;;1.20;;
30998;SDS011;20549;50.042;8.968;2023-04-01T02:48:17;1.47;;;0.90;;
30998;SDS011;20549;50.042;8.968;2023-04-01T02:50:43;1.87;;;1.47;;
30998;SDS011;20549;50.042;8.968;2023-04-01T02:53:10;2.67;;;1.30;;
30998;SDS011;20549;50.042;8.968;2023-04-01T02:55:37;2.23;;;1.00;;
30998;SDS011;20549;50.042;8.968;2023-04-01T02:58:03;2.50;;;1.10;;
30998;SDS011;20549;50.042;8.968;2023-04-01T03:00:30;2.20;;;1.30;;
30998;SDS011;20549;50.042;8.968;2023-04-01T03:02:56;3.00;;;1.12;;
30998;SDS011;20549;50.042;8.968;2023-04-01T03:05:23;1.83;;;1.07;;
30998;SDS011;20549;50.042;8.968;2023-04-01T03:07:49;3.20;;;1.00;;
30998;SDS011;20549;50.042;8.968;2023-04-01T03:10:16;5.00;;;1.87;;
30998;SDS011;20549;50.042;8.968;2023-04-01T03:12:43;1.15;;;0.98;;
30998;SDS011;20549;50.042;8.968;2023-04-01T03:15:10;2.47;;;0.80;;
30998;SDS011;20549;50.042;8.968;2023-04-01T03:17:36;1.80;;;1.10;;
30998;SDS011;20549;50.042;8.968;2023-04-01T03:20:02;2.77;;;1.00;;
30998;SDS011;20549;50.042;8.968;2023-04-01T03:22:29;2.10;;;1.40;;
30998;SDS011;20549;50.042;8.968;2023-04-01T03:24:56;1.60;;;0.90;;
30998;SDS011;20549;50.042;8.968;2023-04-01T03:27:22;2.10;;;0.90;;
30998;SDS011;20549;50.042;8.968;2023-04-01T03:29:49;2.50;;;1.20;;
30998;SDS011;20549;50.042;8.968;2023-04-01T03:32:15;1.63;;;1.37;;
30998;SDS011;20549;50.042;8.968;2023-04-01T03:34:42;1.97;;;0.93;;
30998;SDS011;20549;50.042;8.968;2023-04-01T03:37:08;3.07;;;0.90;;
30998;SDS011;20549;50.042;8.968;2023-04-01T03:39:35;1.10;;;0.80;;
30998;SDS011;20549;50.042;8.968;2023-04-01T03:42:02;2.40;;;1.17;;
30998;SDS011;20549;50.042;8.968;2023-04-01T03:44:31;4.10;;;1.23;;
30998;SDS011;20549;50.042;8.968;2023-04-01T03:46:58;3.52;;;1.20;;
30998;SDS011;20549;50.042;8.968;2023-04-01T03:49:24;2.33;;;0.80;;
30998;SDS011;20549;50.042;8.968;2023-04-01T03:51:51;1.02;;;0.70;;
30998;SDS011;20549;50.042;8.968;2023-04-01T03:54:17;3.55;;;1.35;;
30998;SDS011;20549;50.042;8.968;2023-04-01T03:56:44;1.67;;;0.83;;
30998;SDS011;20549;50.042;8.968;2023-04-01T03:59:11;1.47;;;1.27;;
30998;SDS011;20549;50.042;8.968;2023-04-01T04:01:37;1.13;;;0.87;;
30998;SDS011;20549;50.042;8.968;2023-04-01T04:04:04;3.00;;;1.13;;
30998;SDS011;20549;50.042;8.968;2023-04-01T04:06:30;1.10;;;0.97;;
30998;SDS011;20549;50.042;8.968;2023-04-01T04:08:57;2.95;;;1.15;;
30998;SDS011;20549;50.042;8.968;2023-04-01T04:11:23;2.67;;;1.00;;
30998;SDS011;20549;50.042;8.968;2023-04-01T04:13:50;2.50;;;0.90;;
30998;SDS011;20549;50.042;8.968;2023-04-01T04:16:17;1.90;;;1.07;;
30998;SDS011;20549;50.042;8.968;2023-04-01T04:18:43;3.30;;;0.87;;
30998;SDS011;20549;50.042;8.968;2023-04-01T04:21:11;2.33;;;1.07;;
30998;SDS011;20549;50.042;8.968;2023-04-01T04:23:36;1.90;;;1.07;;
30998;SDS011;20549;50.042;8.968;2023-04-01T04:26:04;2.70;;;1.10;;
30998;SDS011;20549;50.042;8.968;2023-04-01T04:28:30;1.53;;;0.93;;
30998;SDS011;20549;50.042;8.968;2023-04-01T04:30:56;3.23;;;0.97;;
30998;SDS011;20549;50.042;8.968;2023-04-01T04:33:23;3.03;;;1.20;;
30998;SDS011;20549;50.042;8.968;2023-04-01T04:35:50;2.60;;;1.00;;
30998;SDS011;20549;50.042;8.968;2023-04-01T04:38:16;1.13;;;0.80;;
30998;SDS011;20549;50.042;8.968;2023-04-01T04:40:43;2.27;;;1.10;;
30998;SDS011;20549;50.042;8.968;2023-04-01T04:43:13;2.53;;;1.37;;
30998;SDS011;20549;50.042;8.968;2023-04-01T04:45:36;3.13;;;1.00;;
30998;SDS011;20549;50.042;8.968;2023-04-01T04:48:02;1.63;;;0.80;;
30998;SDS011;20549;50.042;8.968;2023-04-01T04:50:29;3.17;;;1.00;;
30998;SDS011;20549;50.042;8.968;2023-04-01T04:52:55;1.27;;;0.73;;
30998;SDS011;20549;50.042;8.968;2023-04-01T04:55:22;1.23;;;0.63;;
30998;SDS011;20549;50.042;8.968;2023-04-01T04:57:49;2.70;;;1.13;;
30998;SDS011;20549;50.042;8.968;2023-04-01T05:00:15;1.23;;;1.00;;
30998;SDS011;20549;50.042;8.968;2023-04-01T05:02:42;2.97;;;1.27;;
30998;SDS011;20549;50.042;8.968;2023-04-01T05:05:08;1.97;;;0.83;;
30998;SDS011;20549;50.042;8.968;2023-04-01T05:07:35;2.40;;;1.07;;
30998;SDS011;20549;50.042;8.968;2023-04-01T05:10:02;2.03;;;1.00;;
30998;SDS011;20549;50.042;8.968;2023-04-01T05:12:28;2.23;;;1.00;;
30998;SDS011;20549;50.042;8.968;2023-04-01T05:14:55;2.50;;;0.80;;
30998;SDS011;20549;50.042;8.968;2023-04-01T05:17:21;1.63;;;0.90;;
30998;SDS011;20549;50.042;8.968;2023-04-01T05:19:48;1.13;;;0.77;;
30998;SDS011;20549;50.042;8.968;2023-04-01T05:22:15;2.53;;;0.83;;
30998;SDS011;20549;50.042;8.968;2023-04-01T05:24:41;2.60;;;1.10;;
30998;SDS011;20549;50.042;8.968;2023-04-01T05:27:08;2.00;;;1.00;;
30998;SDS011;20549;50.042;8.968;2023-04-01T05:29:34;3.77;;;1.10;;
30998;SDS011;20549;50.042;8.968;2023-04-01T05:32:01;1.20;;;0.93;;
30998;SDS011;20549;50.042;8.968;2023-04-01T05:34:27;2.47;;;1.00;;
30998;SDS011;20549;50.042;8.968;2023-04-01T05:36:54;2.77;;;0.77;;
30998;SDS011;20549;50.042;8.968;2023-04-01T05:39:21;1.40;;;0.85;;
30998;SDS011;20549;50.042;8.968;2023-04-01T05:41:47;2.10;;;1.03;;
30998;SDS011;20549;50.042;8.968;2023-04-01T05:44:14;1.43;;;0.73;;
30998;SDS011;20549;50.042;8.968;2023-04-01T05:46:41;1.42;;;0.80;;
30998;SDS011;20549;50.042;8.968;2023-04-01T05:49:07;2.50;;;1.43;;
30998;SDS011;20549;50.042;8.968;2023-04-01T05:51:34;1.00;;;0.80;;
30998;SDS011;20549;50.042;8.968;2023-04-01T05:54:00;2.37;;;1.10;;
30998;SDS011;20549;50.042;8.968;2023-04-01T05:56:27;1.83;;;0.83;;
30998;SDS011;20549;50.042;8.968;2023-04-01T05:58:53;1.57;;;0.90;;
30998;SDS011;20549;50.042;8.968;2023-04-01T06:01:20;2.10;;;0.90;;
30998;SDS011;20549;50.042;8.968;2023-04-01T06:03:46;2.17;;;0.90;;
30998;SDS011;20549;50.042;8.968;2023-04-01T06:06:14;1.47;;;0.70;;
30998;SDS011;20549;50.042;8.968;2023-04-01T06:08:40;1.70;;;1.03;;
30998;SDS011;20549;50.042;8.968;2023-04-01T06:11:16;2.47;;;1.00;;
30998;SDS011;20549;50.042;8.968;2023-04-01T06:16:28;1.70;;;0.90;;
30998;SDS011;20549;50.042;8.968;2023-04-01T06:18:58;2.30;;;0.80;;
30998;SDS011;20549;50.042;8.968;2023-04-01T06:24:43;1.02;;;1.00;;
30998;SDS011;20549;50.042;8.968;2023-04-01T06:33:07;1.13;;;0.70;;
30998;SDS011;20549;50.042;8.968;2023-04-01T06:35:55;1.53;;;0.83;;
30998;SDS011;20549;50.042;8.968;2023-04-01T06:44:16;1.20;;;0.80;;
30998;SDS011;20549;50.042;8.968;2023-04-01T06:52:02;0.60;;;0.43;;
30998;SDS011;20549;50.042;8.968;2023-04-01T06:54:49;1.80;;;0.70;;
30998;SDS011;20549;50.042;8.968;2023-04-01T06:57:00;1.32;;;0.82;;
30998;SDS011;20549;50.042;8.968;2023-04-01T06:59:25;2.03;;;0.80;;
30998;SDS011;20549;50.042;8.968;2023-04-01T07:01:52;0.97;;;0.60;;
30998;SDS011;20549;50.042;8.968;2023-04-01T07:04:32;2.00;;;0.93;;
30998;SDS011;20549;50.042;8.968;2023-04-01T07:07:02;1.17;;;0.68;;
30998;SDS011;20549;50.042;8.968;2023-04-01T07:09:27;1.72;;;0.70;;
30998;SDS011;20549;50.042;8.968;2023-04-01T07:11:53;2.10;;;1.00;;
30998;SDS011;20549;50.042;8.968;2023-04-01T07:14:29;2.37;;;1.33;;
30998;SDS011;20549;50.042;8.968;2023-04-01T07:17:38;2.17;;;1.80;;
30998;SDS011;20549;50.042;8.968;2023-04-01T07:19:26;2.60;;;2.20;;
30998;SDS011;20549;50.042;8.968;2023-04-01T07:25:02;1.63;;;1.20;;
30998;SDS011;20549;50.042;8.968;2023-04-01T07:27:42;1.83;;;1.00;;
30998;SDS011;20549;50.042;8.968;2023-04-01T07:32:49;5.57;;;3.70;;
30998;SDS011;20549;50.042;8.968;2023-04-01T07:46:04;9.07;;;5.70;;
30998;SDS011;20549;50.042;8.968;2023-04-01T07:48:38;5.15;;;3.83;;
30998;SDS011;20549;50.042;8.968;2023-04-01T07:51:19;1.50;;;1.40;;
30998;SDS011;20549;50.042;8.968;2023-04-01T07:53:46;0.93;;;0.93;;
30998;SDS011;20549;50.042;8.968;2023-04-01T07:56:18;1.53;;;1.07;;
30998;SDS011;20549;50.042;8.968;2023-04-01T07:58:53;2.60;;;0.93;;
30998;SDS011;20549;50.042;8.968;2023-04-01T08:04:00;0.82;;;0.72;;
30998;SDS011;20549;50.042;8.968;2023-04-01T08:11:37;2.05;;;0.70;;
30998;SDS011;20549;50.042;8.968;2023-04-01T08:14:21;3.12;;;0.90;;
30998;SDS011;20549;50.042;8.968;2023-04-01T08:17:05;0.97;;;0.70;;
30998;SDS011;20549;50.042;8.968;2023-04-01T08:22:15;1.07;;;0.70;;
30998;SDS011;20549;50.042;8.968;2023-04-01T08:24:43;2.10;;;1.00;;
30998;SDS011;20549;50.042;8.968;2023-04-01T08:27:12;0.53;;;0.53;;
30998;SDS011;20549;50.042;8.968;2023-04-01T08:34:34;3.27;;;1.30;;
30998;SDS011;20549;50.042;8.968;2023-04-01T08:37:00;1.20;;;1.10;;
30998;SDS011;20549;50.042;8.968;2023-04-01T08:42:14;0.50;;;0.50;;
30998;SDS011;20549;50.042;8.968;2023-04-01T08:47:42;0.80;;;0.80;;
30998;SDS011;20549;50.042;8.968;2023-04-01T08:52:58;0.60;;;0.60;;
30998;SDS011;20549;50.042;8.968;2023-04-01T08:55:40;0.87;;;0.77;;
30998;SDS011;20549;50.042;8.968;2023-04-01T08:58:27;1.32;;;0.80;;
30998;SDS011;20549;50.042;8.968;2023-04-01T09:00:57;0.82;;;0.82;;
30998;SDS011;20549;50.042;8.968;2023-04-01T09:06:01;1.15;;;1.02;;
30998;SDS011;20549;50.042;8.968;2023-04-01T09:08:32;1.02;;;0.93;;
30998;SDS011;20549;50.042;8.968;2023-04-01T09:13:56;2.30;;;0.88;;
30998;SDS011;20549;50.042;8.968;2023-04-01T09:19:15;1.47;;;0.80;;
30998;SDS011;20549;50.042;8.968;2023-04-01T09:21:56;0.90;;;0.60;;
30998;SDS011;20549;50.042;8.968;2023-04-01T09:24:31;0.50;;;0.33;;
30998;SDS011;20549;50.042;8.968;2023-04-01T09:37:54;0.82;;;0.53;;
30998;SDS011;20549;50.042;8.968;2023-04-01T09:40:31;1.10;;;0.62;;
30998;SDS011;20549;50.042;8.968;2023-04-01T09:45:34;0.93;;;0.93;;
30998;SDS011;20549;50.042;8.968;2023-04-01T09:48:01;1.05;;;1.02;;
30998;SDS011;20549;50.042;8.968;2023-04-01T09:50:44;1.12;;;1.05;;
30998;SDS011;20549;50.042;8.968;2023-04-01T09:58:23;0.53;;;0.45;;
30998;SDS011;20549;50.042;8.968;2023-04-01T10:09:40;0.60;;;0.60;;
30998;SDS011;20549;50.042;8.968;2023-04-01T10:17:57;1.45;;;0.95;;
30998;SDS011;20549;50.042;8.968;2023-04-01T10:22:58;0.60;;;0.50;;
30998;SDS011;20549;50.042;8.968;2023-04-01T10:36:35;0.72;;;0.70;;
30998;SDS011;20549;50.042;8.968;2023-04-01T10:44:44;0.40;;;0.40;;
30998;SDS011;20549;50.042;8.968;2023-04-01T10:47:30;1.75;;;0.80;;
30998;SDS011;20549;50.042;8.968;2023-04-01T11:17:42;0.60;;;0.60;;
30998;SDS011;20549;50.042;8.968;2023-04-01T11:26:01;0.55;;;0.55;;
30998;SDS011;20549;50.042;8.968;2023-04-01T11:28:39;0.60;;;0.60;;
30998;SDS011;20549;50.042;8.968;2023-04-01T11:37:13;0.45;;;0.40;;
30998;SDS011;20549;50.042;8.968;2023-04-01T11:40:05;0.72;;;0.37;;
30998;SDS011;20549;50.042;8.968;2023-04-01T11:45:43;1.20;;;0.40;;
30998;SDS011;20549;50.042;8.968;2023-04-01T11:48:12;0.20;;;0.20;;
30998;SDS011;20549;50.042;8.968;2023-04-01T11:50:43;0.40;;;0.40;;
30998;SDS011;20549;50.042;8.968;2023-04-01T11:56:02;1.10;;;0.40;;
30998;SDS011;20549;50.042;8.968;2023-04-01T12:04:18;0.40;;;0.40;;
30998;SDS011;20549;50.042;8.968;2023-04-01T12:06:43;0.40;;;0.30;;
30998;SDS011;20549;50.042;8.968;2023-04-01T12:11:45;0.30;;;0.30;;
30998;SDS011;20549;50.042;8.968;2023-04-01T12:14:13;0.60;;;0.10;;
30998;SDS011;20549;50.042;8.968;2023-04-01T12:16:59;0.28;;;0.20;;
30998;SDS011;20549;50.042;8.968;2023-04-01T12:19:44;0.25;;;0.20;;
30998;SDS011;20549;50.042;8.968;2023-04-01T12:22:11;0.20;;;0.20;;
30998;SDS011;20549;50.042;8.968;2023-04-01T12:24:52;0.17;;;0.17;;
30998;SDS011;20549;50.042;8.968;2023-04-01T12:41:08;0.15;;;0.15;;
30998;SDS011;20549;50.042;8.968;2023-04-01T12:43:37;0.10;;;0.10;;
30998;SDS011;20549;50.042;8.968;2023-04-01T12:49:03;0.33;;;0.30;;
30998;SDS011;20549;50.042;8.968;2023-04-01T12:54:39;0.28;;;0.28;;
30998;SDS011;20549;50.042;8.968;2023-04-01T12:57:42;0.55;;;0.20;;
30998;SDS011;20549;50.042;8.968;2023-04-01T13:11:41;0.23;;;0.20;;
30998;SDS011;20549;50.042;8.968;2023-04-01T13:17:08;1.22;;;0.65;;
30998;SDS011;20549;50.042;8.968;2023-04-01T13:19:38;0.30;;;0.30;;
30998;SDS011;20549;50.042;8.968;2023-04-01T13:22:08;0.62;;;0.62;;
30998;SDS011;20549;50.042;8.968;2023-04-01T13:27:29;0.40;;;0.40;;
30998;SDS011;20549;50.042;8.968;2023-04-01T13:30:24;0.80;;;0.68;;
30998;SDS011;20549;50.042;8.968;2023-04-01T13:32:56;1.22;;;0.50;;
30998;SDS011;20549;50.042;8.968;2023-04-01T13:35:49;0.45;;;0.45;;
30998;SDS011;20549;50.042;8.968;2023-04-01T13:42:14;1.27;;;0.40;;
30998;SDS011;20549;50.042;8.968;2023-04-01T13:49:12;0.47;;;0.47;;
30998;SDS011;20549;50.042;8.968;2023-04-01T13:51:57;0.72;;;0.53;;
30998;SDS011;20549;50.042;8.968;2023-04-01T13:57:35;1.42;;;1.32;;
30998;SDS011;20549;50.042;8.968;2023-04-01T13:59:59;1.45;;;1.40;;
30998;SDS011;20549;50.042;8.968;2023-04-01T14:02:47;0.57;;;0.57;;
30998;SDS011;20549;50.042;8.968;2023-04-01T14:05:24;0.50;;;0.50;;
30998;SDS011;20549;50.042;8.968;2023-04-01T14:07:56;0.60;;;0.60;;
30998;SDS011;20549;50.042;8.968;2023-04-01T14:13:48;1.15;;;1.07;;
30998;SDS011;20549;50.042;8.968;2023-04-01T14:18:58;1.20;;;1.10;;
30998;SDS011;20549;50.042;8.968;2023-04-01T14:21:55;0.88;;;0.88;;
30998;SDS011;20549;50.042;8.968;2023-04-01T14:24:31;0.40;;;0.40;;
30998;SDS011;20549;50.042;8.968;2023-04-01T14:29:58;0.70;;;0.70;;
30998;SDS011;20549;50.042;8.968;2023-04-01T14:38:05;1.22;;;0.53;;
30998;SDS011;20549;50.042;8.968;2023-04-01T14:40:48;0.40;;;0.40;;
30998;SDS011;20549;50.042;8.968;2023-04-01T14:43:16;0.82;;;0.82;;
30998;SDS011;20549;50.042;8.968;2023-04-01T14:48:32;0.82;;;0.65;;
30998;SDS011;20549;50.042;8.968;2023-04-01T14:50:57;0.60;;;0.60;;
30998;SDS011;20549;50.042;8.968;2023-04-01T14:55:50;1.02;;;0.47;;
30998;SDS011;20549;50.042;8.968;2023-04-01T14:58:17;0.35;;;0.35;;
30998;SDS011;20549;50.042;8.968;2023-04-01T15:00:55;1.70;;;0.30;;
30998;SDS011;20549;50.042;8.968;2023-04-01T15:14:21;0.93;;;0.72;;
30998;SDS011;20549;50.042;8.968;2023-04-01T15:19:38;1.20;;;0.70;;
30998;SDS011;20549;50.042;8.968;2023-04-01T15:25:05;1.13;;;0.70;;
30998;SDS011;20549;50.042;8.968;2023-04-01T15:30:01;0.33;;;0.33;;
30998;SDS011;20549;50.042;8.968;2023-04-01T15:35:39;0.60;;;0.60;;
30998;SDS011;20549;50.042;8.968;2023-04-01T15:40:43;0.40;;;0.40;;
30998;SDS011;20549;50.042;8.968;2023-04-01T15:43:43;0.35;;;0.35;;
30998;SDS011;20549;50.042;8.968;2023-04-01T15:48:44;0.70;;;0.60;;
30998;SDS011;20549;50.042;8.968;2023-04-01T15:51:19;2.30;;;0.60;;
30998;SDS011;20549;50.042;8.968;2023-04-01T15:56:36;1.15;;;0.95;;
30998;SDS011;20549;50.042;8.968;2023-04-01T16:13:06;1.10;;;1.10;;
30998;SDS011;20549;50.042;8.968;2023-04-01T16:18:30;1.52;;;1.42;;
30998;SDS011;20549;50.042;8.968;2023-04-01T16:21:02;2.55;;;1.75;;
30998;SDS011;20549;50.042;8.968;2023-04-01T16:23:33;1.12;;;1.12;;
30998;SDS011;20549;50.042;8.968;2023-04-01T16:28:31;0.90;;;0.90;;
30998;SDS011;20549;50.042;8.968;2023-04-01T16:30:58;0.97;;;0.97;;
30998;SDS011;20549;50.042;8.968;2023-04-01T16:41:31;0.62;;;0.50;;
30998;SDS011;20549;50.042;8.968;2023-04-01T16:44:05;0.65;;;0.65;;
30998;SDS011;20549;50.042;8.968;2023-04-01T16:46:39;0.70;;;0.70;;
30998;SDS011;20549;50.042;8.968;2023-04-01T16:54:24;0.72;;;0.72;;
30998;SDS011;20549;50.042;8.968;2023-04-01T16:59:35;1.27;;;1.20;;
30998;SDS011;20549;50.042;8.968;2023-04-01T17:04:46;1.00;;;1.00;;
30998;SDS011;20549;50.042;8.968;2023-04-01T17:07:28;2.00;;;1.80;;
30998;SDS011;20549;50.042;8.968;2023-04-01T17:13:10;2.67;;;2.13;;
30998;SDS011;20549;50.042;8.968;2023-04-01T17:15:38;2.07;;;1.90;;
30998;SDS011;20549;50.042;8.968;2023-04-01T17:18:26;2.47;;;2.08;;
30998;SDS011;20549;50.042;8.968;2023-04-01T17:23:34;4.03;;;3.50;;
30998;SDS011;20549;50.042;8.968;2023-04-01T17:26:08;2.92;;;2.50;;
30998;SDS011;20549;50.042;8.968;2023-04-01T17:28:57;1.67;;;1.50;;
30998;SDS011;20549;50.042;8.968;2023-04-01T17:31:46;2.10;;;1.90;;
30998;SDS011;20549;50.042;8.968;2023-04-01T17:37:01;3.30;;;3.00;;
30998;SDS011;20549;50.042;8.968;2023-04-01T17:42:06;2.30;;;2.10;;
30998;SDS011;20549;50.042;8.968;2023-04-01T17:58:51;4.73;;;3.20;;
30998;SDS011;20549;50.042;8.968;2023-04-01T18:01:26;3.10;;;2.30;;
30998;SDS011;20549;50.042;8.968;2023-04-01T18:06:21;3.07;;;1.40;;
30998;SDS011;20549;50.042;8.968;2023-04-01T18:11:39;1.00;;;1.00;;
30998;SDS011;20549;50.042;8.968;2023-04-01T18:19:28;1.03;;;1.03;;
30998;SDS011;20549;50.042;8.968;2023-04-01T18:21:52;1.87;;;1.17;;
30998;SDS011;20549;50.042;8.968;2023-04-01T18:24:43;1.30;;;1.20;;
30998;SDS011;20549;50.042;8.968;2023-04-01T18:27:18;1.27;;;1.17;;
30998;SDS011;20549;50.042;8.968;2023-04-01T18:29:54;2.03;;;1.40;;
30998;SDS011;20549;50.042;8.968;2023-04-01T18:32:42;4.43;;;1.63;;
30998;SDS011;20549;50.042;8.968;2023-04-01T18:35:19;1.83;;;1.73;;
30998;SDS011;20549;50.042;8.968;2023-04-01T18:37:46;1.40;;;1.30;;
30998;SDS011;20549;50.042;8.968;2023-04-01T18:42:42;0.73;;;0.73;;
30998;SDS011;20549;50.042;8.968;2023-04-01T18:45:14;0.62;;;0.62;;
30998;SDS011;20549;50.042;8.968;2023-04-01T18:47:38;0.70;;;0.70;;
30998;SDS011;20549;50.042;8.968;2023-04-01T18:52:51;0.77;;;0.63;;
30998;SDS011;20549;50.042;8.968;2023-04-01T18:55:29;1.43;;;1.33;;
30998;SDS011;20549;50.042;8.968;2023-04-01T18:57:51;1.20;;;1.10;;
30998;SDS011;20549;50.042;8.968;2023-04-01T19:00:21;0.97;;;0.93;;
30998;SDS011;20549;50.042;8.968;2023-04-01T19:03:34;1.03;;;1.03;;
30998;SDS011;20549;50.042;8.968;2023-04-01T19:05:32;1.17;;;1.00;;
30998;SDS011;20549;50.042;8.968;2023-04-01T19:27:09;1.70;;;1.60;;
30998;SDS011;20549;50.042;8.968;2023-04-01T19:30:39;2.10;;;1.90;;
30998;SDS011;20549;50.042;8.968;2023-04-01T19:32:19;2.30;;;2.10;;
30998;SDS011;20549;50.042;8.968;2023-04-01T19:37:26;1.60;;;1.47;;
30998;SDS011;20549;50.042;8.968;2023-04-01T19:39:59;1.23;;;1.17;;
30998;SDS011;20549;50.042;8.968;2023-04-01T19:42:33;0.90;;;0.90;;
30998;SDS011;20549;50.042;8.968;2023-04-01T19:45:50;1.20;;;0.90;;
30998;SDS011;20549;50.042;8.968;2023-04-01T19:47:57;0.87;;;0.87;;
30998;SDS011;20549;50.042;8.968;2023-04-01T19:50:40;0.97;;;0.80;;
30998;SDS011;20549;50.042;8.968;2023-04-01T19:59:06;0.77;;;0.77;;
30998;SDS011;20549;50.042;8.968;2023-04-01T20:01:14;1.43;;;0.80;;
30998;SDS011;20549;50.042;8.968;2023-04-01T20:03:41;0.83;;;0.60;;
30998;SDS011;20549;50.042;8.968;2023-04-01T20:06:17;0.90;;;0.70;;
30998;SDS011;20549;50.042;8.968;2023-04-01T20:11:38;2.80;;;0.93;;
30998;SDS011;20549;50.042;8.968;2023-04-01T20:16:51;1.30;;;0.73;;
30998;SDS011;20549;50.042;8.968;2023-04-01T20:19:03;0.63;;;0.60;;
30998;SDS011;20549;50.042;8.968;2023-04-01T20:21:31;0.80;;;0.80;;
30998;SDS011;20549;50.042;8.968;2023-04-01T20:24:14;2.07;;;0.57;;
30998;SDS011;20549;50.042;8.968;2023-04-01T20:26:35;0.77;;;0.63;;
30998;SDS011;20549;50.042;8.968;2023-04-01T20:34:40;0.80;;;0.80;;
30998;SDS011;20549;50.042;8.968;2023-04-01T20:37:32;0.70;;;0.70;;
30998;SDS011;20549;50.042;8.968;2023-04-01T20:40:23;1.10;;;1.10;;
30998;SDS011;20549;50.042;8.968;2023-04-01T20:50:40;2.47;;;1.53;;
30998;SDS011;20549;50.042;8.968;2023-04-01T20:53:20;1.87;;;1.40;;
30998;SDS011;20549;50.042;8.968;2023-04-01T20:58:53;1.37;;;1.27;;
30998;SDS011;20549;50.042;8.968;2023-04-01T21:01:25;2.20;;;1.20;;
30998;SDS011;20549;50.042;8.968;2023-04-01T21:14:59;0.60;;;0.60;;
30998;SDS011;20549;50.042;8.968;2023-04-01T21:20:22;0.87;;;0.80;;
30998;SDS011;20549;50.042;8.968;2023-04-01T21:22:54;2.50;;;0.80;;
30998;SDS011;20549;50.042;8.968;2023-04-01T21:25:29;0.90;;;0.90;;
30998;SDS011;20549;50.042;8.968;2023-04-01T21:31:08;0.83;;;0.67;;
30998;SDS011;20549;50.042;8.968;2023-04-01T21:33:38;2.10;;;0.70;;
30998;SDS011;20549;50.042;8.968;2023-04-01T21:38:42;0.70;;;0.70;;
30998;SDS011;20549;50.042;8.968;2023-04-01T21:41:24;0.53;;;0.53;;
30998;SDS011;20549;50.042;8.968;2023-04-01T21:44:12;1.60;;;0.73;;
30998;SDS011;20549;50.042;8.968;2023-04-01T21:46:54;0.83;;;0.50;;
30998;SDS011;20549;50.042;8.968;2023-04-01T21:52:31;0.90;;;0.70;;
30998;SDS011;20549;50.042;8.968;2023-04-01T21:55:01;0.80;;;0.80;;
30998;SDS011;20549;50.042;8.968;2023-04-01T22:00:17;0.60;;;0.60;;
30998;SDS011;20549;50.042;8.968;2023-04-01T22:08:43;0.80;;;0.70;;
30998;SDS011;20549;50.042;8.968;2023-04-01T22:16:59;1.17;;;1.07;;
30998;SDS011;20549;50.042;8.968;2023-04-01T22:19:28;1.23;;;0.80;;
30998;SDS011;20549;50.042;8.968;2023-04-01T22:22:09;0.70;;;0.70;;
30998;SDS011;20549;50.042;8.968;2023-04-01T22:27:14;0.70;;;0.70;;
30998;SDS011;20549;50.042;8.968;2023-04-01T22:29:58;0.87;;;0.60;;
30998;SDS011;20549;50.042;8.968;2023-04-01T22:32:42;0.70;;;0.70;;
30998;SDS011;20549;50.042;8.968;2023-04-01T22:40:16;1.90;;;1.20;;
30998;SDS011;20549;50.042;8.968;2023-04-01T22:42:52;2.13;;;1.10;;
30998;SDS011;20549;50.042;8.968;2023-04-01T22:48:05;1.17;;;1.12;;
30998;SDS011;20549;50.042;8.968;2023-04-01T22:50:40;1.30;;;0.90;;
30998;SDS011;20549;50.042;8.968;2023-04-01T22:53:08;1.40;;;1.30;;
30998;SDS011;20549;50.042;8.968;2023-04-01T22:55:33;1.20;;;1.10;;
30998;SDS011;20549;50.042;8.968;2023-04-01T22:58:00;2.17;;;1.40;;
30998;SDS011;20549;50.042;8.968;2023-04-01T23:00:36;1.30;;;1.20;;